Ashford, CT (06278)

11:39 AM EDT on July 24, 2016 (GMT -0400)
APRSWXNET | | Change Station

Elev 695 ft 41.89 °N, 72.14 °W | Updated 23 minutes ago

Mostly Cloudy
Mostly Cloudy
78 °F
Feels Like 80 °F
N
Wind Variable Wind from North
Gusts 0.0 mph

Today
High -- | Low -- °F
--% Chance of Precip.
Yesterday
High -- | Low -- °F
Precip. -- in
Pressure 29.95 in
Visibility 10.0 miles
Clouds Few 4000 ft
Scattered Clouds 20000 ft
Mostly Cloudy 25000 ft
Heat Index 80 °F
Dew Point 64 °F
Humidity 63%
Rainfall in
Snow Depth Not available.
5:34 AM 8:14 PM
Waning Gibbous, 75% visible
METAR KBDL 241451Z 31011KT 10SM FEW040 SCT200 BKN250 29/14 A2995 RMK AO2 SLP142 T02890144 56008 $
Pressure 29.95 in
Visibility 10.0 miles
Clouds Few 4000 ft
Scattered Clouds 20000 ft
Mostly Cloudy 25000 ft
Heat Index 80 °F
Dew Point 64 °F
Humidity 63%
Rainfall in
Snow Depth Not available.
5:34 AM 8:14 PM
Waning Gibbous, 75% visible
METAR KBDL 241451Z 31011KT 10SM FEW040 SCT200 BKN250 29/14 A2995 RMK AO2 SLP142 T02890144 56008 $

10-Day Weather Forecast

Almanac

Astronomy

Jul. 24, 2016 Rise Set
Actual Time
Civil Twilight
Nautical Twilight
Astronomical Twilight
Moon
Length of Visible Light
Length of Day
Tomorrow will be .
, % of the Moon is Illuminated

Today's Extremes

State Highs State Lows

Community

WunderPhotos

Upload Photos

1,927,092 photos uploaded!

WunderBlog® & News

Nearby

Air Quality

  Air Quality AQ Index Pollutant
Not available.

Snow Depth

Station Depth Elevation

Earthquake Activity

City Distance Mag. Time & Date
Minimum magnitude displayed is 2.5.

Coastal Water Temperatures

Place Temperature

Stations

Nearby Weather Stations

Station Location Temp. Windchill Dew Point Humidity Wind Precip. Elev Updated Type
                   

Watches & Warnings

There are currently no watches in effect.